Time;durP1;ratioP1;P1;durP2;ratioP2;P2;SDS_P1;SDS_P2;PMS_P1;PMS_P2;Temp;Humidity;BMP_temperature;BMP_pressure;BME280_temperature;BME280_humidity;BME280_pressure;Samples;Min_cycle;Max_cycle;Signal;HPM_P1;HPM_P2
2021/09/25 00:00:07;;;;;;;;;28.50;27.50;;;;;;;;4992224;28;45384;-73
2021/09/25 00:02:33;;;;;;;;;27.50;25.50;;;;;;;;4992227;28;45346;-74
2021/09/25 00:04:58;;;;;;;;;25.50;25.50;;;;;;;;4990880;28;45244;-74
2021/09/25 00:07:23;;;;;;;;;35.75;29.50;;;;;;;;4992777;28;45244;-72
2021/09/25 00:09:48;;;;;;;;;32.25;26.75;;;;;;;;4992407;28;45261;-74
2021/09/25 00:12:14;;;;;;;;;30.00;27.50;;;;;;;;4992206;28;45280;-74
2021/09/25 00:14:40;;;;;;;;;31.75;29.00;;;;;;;;4992179;28;45504;-72
2021/09/25 00:17:07;;;;;;;;;29.25;26.50;;;;;;;;4990494;28;47289;-73
2021/09/25 00:19:33;;;;;;;;;33.00;29.50;;;;;;;;4974000;28;45361;-73
2021/09/25 00:21:58;;;;;;;;;33.00;29.25;;;;;;;;4993705;28;45469;-74
2021/09/25 00:24:23;;;;;;;;;33.75;26.25;;;;;;;;4992064;28;45573;-72
2021/09/25 00:26:49;;;;;;;;;22.50;19.00;;;;;;;;4992235;28;46348;-73
2021/09/25 00:29:14;;;;;;;;;29.25;24.75;;;;;;;;4992100;28;45355;-72
2021/09/25 00:31:39;;;;;;;;;38.75;36.00;;;;;;;;4992475;28;45763;-74
2021/09/25 00:34:04;;;;;;;;;29.50;25.00;;;;;;;;4989573;28;45430;-74
2021/09/25 00:36:30;;;;;;;;;28.50;27.25;;;;;;;;4991599;28;46623;-73
2021/09/25 00:38:55;;;;;;;;;29.75;27.25;;;;;;;;4992002;28;45394;-73
2021/09/25 00:41:20;;;;;;;;;25.00;23.50;;;;;;;;4992216;28;45411;-73
2021/09/25 00:43:46;;;;;;;;;26.25;24.75;;;;;;;;4992081;28;45288;-74
2021/09/25 00:46:14;;;;;;;;;24.75;24.25;;;;;;;;4993359;28;46250;-72
2021/09/25 00:48:40;;;;;;;;;33.50;29.75;;;;;;;;4991230;28;45423;-72
2021/09/25 00:51:05;;;;;;;;;26.75;25.50;;;;;;;;4991961;28;45402;-73
2021/09/25 00:53:30;;;;;;;;;30.25;28.50;;;;;;;;4992020;28;45358;-73
2021/09/25 00:55:56;;;;;;;;;30.25;29.00;;;;;;;;4990441;28;46210;-73
2021/09/25 00:58:21;;;;;;;;;26.75;24.00;;;;;;;;4992643;28;45570;-73
2021/09/25 01:00:46;;;;;;;;;34.75;30.50;;;;;;;;4991655;28;45444;-74
2021/09/25 01:03:11;;;;;;;;;29.00;27.50;;;;;;;;4991595;28;45340;-73
2021/09/25 01:05:40;;;;;;;;;30.00;28.25;;;;;;;;4991633;28;45565;-74
2021/09/25 01:08:05;;;;;;;;;24.50;24.50;;;;;;;;4991445;28;45441;-73
2021/09/25 01:10:31;;;;;;;;;24.00;23.00;;;;;;;;4991593;28;45589;-73
2021/09/25 01:12:56;;;;;;;;;28.75;26.00;;;;;;;;4993340;28;45527;-74
2021/09/25 01:15:21;;;;;;;;;31.50;26.50;;;;;;;;4991166;28;47148;-74
2021/09/25 01:17:46;;;;;;;;;24.00;20.00;;;;;;;;4991035;28;45388;-74
2021/09/25 01:20:12;;;;;;;;;28.50;26.00;;;;;;;;4991512;28;45519;-74
2021/09/25 01:22:38;;;;;;;;;23.50;21.50;;;;;;;;4991652;28;45320;-73
2021/09/25 01:25:04;;;;;;;;;27.25;23.50;;;;;;;;4993228;28;45391;-73
2021/09/25 01:27:29;;;;;;;;;23.75;22.25;;;;;;;;4991189;28;45344;-73
2021/09/25 01:29:54;;;;;;;;;24.50;21.75;;;;;;;;4990991;28;45497;-74
2021/09/25 01:32:20;;;;;;;;;29.25;24.50;;;;;;;;4990660;28;45408;-73
2021/09/25 01:34:45;;;;;;;;;27.00;25.25;;;;;;;;4974264;28;47865;-73
2021/09/25 01:37:10;;;;;;;;;22.75;20.75;;;;;;;;4992871;28;45244;-74
2021/09/25 01:39:35;;;;;;;;;26.00;20.25;;;;;;;;4990443;28;45391;-72
2021/09/25 01:42:02;;;;;;;;;22.75;20.00;;;;;;;;4991083;28;45627;-73
2021/09/25 01:44:27;;;;;;;;;22.00;19.00;;;;;;;;4991164;28;46329;-73
2021/09/25 01:46:54;;;;;;;;;32.25;26.75;;;;;;;;4990960;28;45461;-73
2021/09/25 01:49:19;;;;;;;;;26.00;21.25;;;;;;;;4991890;28;45390;-72
2021/09/25 01:51:44;;;;;;;;;27.00;23.00;;;;;;;;4992767;28;45267;-74
2021/09/25 01:54:11;;;;;;;;;29.75;25.25;;;;;;;;4990929;28;47267;-73
2021/09/25 01:56:36;;;;;;;;;27.75;24.00;;;;;;;;4991061;28;45468;-73
2021/09/25 01:59:01;;;;;;;;;30.50;24.50;;;;;;;;4991336;28;45249;-73
2021/09/25 02:01:27;;;;;;;;;22.50;22.00;;;;;;;;4990627;28;45284;-73
2021/09/25 02:03:52;;;;;;;;;28.00;27.25;;;;;;;;4992863;28;45351;-73
2021/09/25 02:06:17;;;;;;;;;20.00;19.00;;;;;;;;4991052;28;45260;-73
2021/09/25 02:08:45;;;;;;;;;24.25;21.25;;;;;;;;4991531;28;45438;-73
2021/09/25 02:11:10;;;;;;;;;19.00;18.50;;;;;;;;4991167;28;45498;-72
2021/09/25 02:13:36;;;;;;;;;22.50;21.00;;;;;;;;4990343;28;46864;-72
2021/09/25 02:16:01;;;;;;;;;27.75;24.75;;;;;;;;4992370;28;45379;-72
2021/09/25 02:18:26;;;;;;;;;27.00;25.75;;;;;;;;4988576;28;45639;-72
2021/09/25 02:20:52;;;;;;;;;22.50;21.25;;;;;;;;4990682;28;45326;-72
2021/09/25 02:23:17;;;;;;;;;19.50;19.00;;;;;;;;4990897;28;45572;-72
2021/09/25 02:25:42;;;;;;;;;20.00;19.75;;;;;;;;4990887;28;45520;-73
2021/09/25 02:28:08;;;;;;;;;25.25;22.00;;;;;;;;4993031;28;45351;-73
2021/09/25 02:30:33;;;;;;;;;22.75;19.50;;;;;;;;4990248;28;45331;-73
2021/09/25 02:32:58;;;;;;;;;25.50;21.75;;;;;;;;4972798;28;45627;-73
2021/09/25 02:35:24;;;;;;;;;19.00;17.25;;;;;;;;4990478;28;45382;-73
2021/09/25 02:37:49;;;;;;;;;19.25;18.50;;;;;;;;4990690;28;45389;-72
2021/09/25 02:40:16;;;;;;;;;25.50;24.50;;;;;;;;4992181;28;45338;-73
2021/09/25 02:42:42;;;;;;;;;24.75;22.25;;;;;;;;4991455;28;45425;-72
2021/09/25 02:45:08;;;;;;;;;21.75;21.75;;;;;;;;4989914;28;45252;-74
2021/09/25 02:47:34;;;;;;;;;22.25;21.75;;;;;;;;4990481;28;45377;-74
2021/09/25 02:49:59;;;;;;;;;26.00;21.00;;;;;;;;4990493;28;45556;-72
2021/09/25 02:52:26;;;;;;;;;22.50;21.00;;;;;;;;4990482;28;46295;-72
2021/09/25 02:54:51;;;;;;;;;22.25;21.75;;;;;;;;4991061;28;45314;-72
2021/09/25 02:57:17;;;;;;;;;18.00;16.75;;;;;;;;4988806;28;45497;-73
2021/09/25 02:59:42;;;;;;;;;18.75;18.75;;;;;;;;4990089;28;45456;-73
2021/09/25 03:02:07;;;;;;;;;27.25;25.75;;;;;;;;4990458;28;45489;-73
2021/09/25 03:04:32;;;;;;;;;30.00;22.50;;;;;;;;4990506;28;45349;-73
2021/09/25 03:06:57;;;;;;;;;24.25;22.75;;;;;;;;4991544;28;45474;-73
2021/09/25 03:09:23;;;;;;;;;27.00;23.50;;;;;;;;4989906;28;45361;-73
2021/09/25 03:11:48;;;;;;;;;21.00;20.25;;;;;;;;4989653;28;45959;-73
2021/09/25 03:14:14;;;;;;;;;23.00;21.75;;;;;;;;4989269;28;45484;-73
2021/09/25 03:16:39;;;;;;;;;23.50;20.25;;;;;;;;4989864;28;45347;-73
2021/09/25 03:19:04;;;;;;;;;19.50;18.50;;;;;;;;4992069;28;45282;-73
2021/09/25 03:21:29;;;;;;;;;23.75;19.50;;;;;;;;4989526;28;45374;-74
2021/09/25 03:23:54;;;;;;;;;21.50;17.50;;;;;;;;4989474;28;45388;-72
2021/09/25 03:26:20;;;;;;;;;25.75;21.25;;;;;;;;4989226;28;45505;-72
2021/09/25 03:28:45;;;;;;;;;24.25;22.25;;;;;;;;4989596;28;45270;-72
2021/09/25 03:31:10;;;;;;;;;24.75;21.00;;;;;;;;4993259;28;47076;-72
2021/09/25 03:33:35;;;;;;;;;19.75;18.75;;;;;;;;4991883;28;45295;-73
2021/09/25 03:36:01;;;;;;;;;22.25;20.50;;;;;;;;4991310;28;45446;-72
2021/09/25 03:38:27;;;;;;;;;22.00;20.25;;;;;;;;4992678;28;45490;-72
2021/09/25 03:40:53;;;;;;;;;26.25;24.00;;;;;;;;4992309;28;46403;-73
2021/09/25 03:43:18;;;;;;;;;21.00;19.25;;;;;;;;4992910;28;45365;-74
2021/09/25 03:45:43;;;;;;;;;31.00;24.50;;;;;;;;4994147;28;45319;-73
2021/09/25 03:48:08;;;;;;;;;20.50;17.50;;;;;;;;4992511;28;45337;-74
2021/09/25 03:50:34;;;;;;;;;20.75;19.75;;;;;;;;4992660;28;45287;-74
2021/09/25 03:53:00;;;;;;;;;20.25;19.25;;;;;;;;4975012;28;45564;-73
2021/09/25 03:55:25;;;;;;;;;21.25;16.75;;;;;;;;4992779;28;45348;-73
2021/09/25 03:57:50;;;;;;;;;23.25;21.00;;;;;;;;4994121;28;45282;-73
2021/09/25 04:00:15;;;;;;;;;26.00;20.50;;;;;;;;4992157;28;45555;-73
2021/09/25 04:02:40;;;;;;;;;22.50;21.25;;;;;;;;4992003;28;45507;-73
2021/09/25 04:05:06;;;;;;;;;23.50;21.25;;;;;;;;4992357;28;45997;-73
2021/09/25 04:07:31;;;;;;;;;24.00;23.00;;;;;;;;4992245;28;45400;-73
2021/09/25 04:09:56;;;;;;;;;32.25;28.75;;;;;;;;4993836;28;45489;-73
2021/09/25 04:12:22;;;;;;;;;19.75;17.50;;;;;;;;4989715;28;45455;-73
2021/09/25 04:14:48;;;;;;;;;24.25;23.75;;;;;;;;4990421;28;45460;-73
2021/09/25 04:17:13;;;;;;;;;28.75;25.75;;;;;;;;4992099;28;45421;-73
2021/09/25 04:19:38;;;;;;;;;23.25;22.00;;;;;;;;4974579;28;45397;-72
2021/09/25 04:22:03;;;;;;;;;23.50;23.00;;;;;;;;4989604;28;45346;-72
2021/09/25 04:24:28;;;;;;;;;22.00;18.75;;;;;;;;4991913;28;45449;-72
2021/09/25 04:26:54;;;;;;;;;27.00;23.00;;;;;;;;4991315;28;45509;-73
2021/09/25 04:29:19;;;;;;;;;29.00;24.25;;;;;;;;4991534;28;45554;-73
2021/09/25 04:31:46;;;;;;;;;23.50;21.25;;;;;;;;4991754;28;45423;-74
2021/09/25 04:34:12;;;;;;;;;23.00;21.00;;;;;;;;4993439;28;45216;-74
2021/09/25 04:36:40;;;;;;;;;22.25;22.00;;;;;;;;4992376;28;45486;-74
2021/09/25 04:39:05;;;;;;;;;24.75;23.25;;;;;;;;4991040;28;47239;-74
2021/09/25 04:41:30;;;;;;;;;20.25;17.00;;;;;;;;4990887;28;45382;-74
2021/09/25 04:43:56;;;;;;;;;25.00;21.25;;;;;;;;4991898;28;45372;-72
2021/09/25 04:46:21;;;;;;;;;25.75;22.50;;;;;;;;4992475;28;45397;-74
2021/09/25 04:48:48;;;;;;;;;25.75;21.00;;;;;;;;4993169;28;47118;-74
2021/09/25 04:51:13;;;;;;;;;27.00;24.75;;;;;;;;4990052;28;45280;-72
2021/09/25 04:53:38;;;;;;;;;27.75;20.75;;;;;;;;4989290;28;45507;-71
2021/09/25 04:56:04;;;;;;;;;27.25;24.25;;;;;;;;4991509;28;45411;-72
2021/09/25 04:58:29;;;;;;;;;24.25;21.50;;;;;;;;4991657;28;45377;-72
2021/09/25 05:00:56;;;;;;;;;23.50;19.50;;;;;;;;4993003;28;45419;-72
2021/09/25 05:03:21;;;;;;;;;22.50;20.00;;;;;;;;4991195;28;45337;-71
2021/09/25 05:05:46;;;;;;;;;20.75;20.75;;;;;;;;4991143;28;45268;-72
2021/09/25 05:08:11;;;;;;;;;27.75;23.00;;;;;;;;4990393;28;46269;-73
2021/09/25 05:10:37;;;;;;;;;27.25;23.75;;;;;;;;4991259;28;45395;-73
2021/09/25 05:13:02;;;;;;;;;24.50;22.25;;;;;;;;4993312;28;45333;-73
2021/09/25 05:15:27;;;;;;;;;29.00;25.75;;;;;;;;4991249;28;45407;-73
2021/09/25 05:17:52;;;;;;;;;28.75;24.50;;;;;;;;4991104;28;45321;-73
2021/09/25 05:20:17;;;;;;;;;38.25;32.50;;;;;;;;4973419;28;46272;-73
2021/09/25 05:22:43;;;;;;;;;22.50;22.50;;;;;;;;4973483;28;45371;-74
2021/09/25 05:25:08;;;;;;;;;20.00;20.00;;;;;;;;4993293;28;45367;-72
2021/09/25 05:27:33;;;;;;;;;26.00;24.75;;;;;;;;4990685;28;46362;-73
2021/09/25 05:29:58;;;;;;;;;29.75;24.50;;;;;;;;4989658;28;45583;-73
2021/09/25 05:32:24;;;;;;;;;26.25;20.75;;;;;;;;4989911;28;45622;-72
2021/09/25 05:34:49;;;;;;;;;25.25;23.25;;;;;;;;4991937;28;45281;-72
2021/09/25 05:37:17;;;;;;;;;33.75;31.75;;;;;;;;4992509;28;45557;-72
2021/09/25 05:39:42;;;;;;;;;25.00;21.75;;;;;;;;4992242;28;45423;-73
2021/09/25 05:42:08;;;;;;;;;25.50;21.25;;;;;;;;4973044;28;45573;-73
2021/09/25 05:44:34;;;;;;;;;25.75;23.50;;;;;;;;4990797;28;45433;-71
2021/09/25 05:46:59;;;;;;;;;35.25;32.00;;;;;;;;4990488;28;46330;-72
2021/09/25 05:49:24;;;;;;;;;27.00;25.00;;;;;;;;4990702;28;45404;-72
2021/09/25 05:51:50;;;;;;;;;23.50;20.75;;;;;;;;4992526;28;45296;-71
2021/09/25 05:54:15;;;;;;;;;25.25;20.25;;;;;;;;4989429;28;45279;-72
2021/09/25 05:56:40;;;;;;;;;26.00;24.00;;;;;;;;4990436;28;46007;-75
2021/09/25 05:59:06;;;;;;;;;24.00;22.50;;;;;;;;4990529;28;45502;-78
2021/09/25 06:01:31;;;;;;;;;26.75;25.00;;;;;;;;4990715;28;45453;-76
2021/09/25 06:03:56;;;;;;;;;25.00;22.00;;;;;;;;4975472;28;45627;-77
2021/09/25 06:06:21;;;;;;;;;27.00;24.00;;;;;;;;4990368;28;46369;-77
2021/09/25 06:08:47;;;;;;;;;23.25;23.25;;;;;;;;4988835;28;45277;-76
2021/09/25 06:11:12;;;;;;;;;25.25;22.25;;;;;;;;4990573;28;45395;-77
2021/09/25 06:13:37;;;;;;;;;23.50;23.25;;;;;;;;4990761;28;45428;-76
2021/09/25 06:16:02;;;;;;;;;23.75;22.75;;;;;;;;4992441;28;46177;-77
2021/09/25 06:18:27;;;;;;;;;25.50;24.75;;;;;;;;4990442;28;45548;-76
2021/09/25 06:20:53;;;;;;;;;29.75;24.50;;;;;;;;4989948;28;45413;-77
2021/09/25 06:23:18;;;;;;;;;27.75;24.75;;;;;;;;4990307;28;45414;-77
2021/09/25 06:25:43;;;;;;;;;27.25;23.50;;;;;;;;4989868;28;46196;-77
2021/09/25 06:28:09;;;;;;;;;31.75;29.75;;;;;;;;4991886;28;45218;-77
2021/09/25 06:30:40;;;;;;;;;27.50;26.00;;;;;;;;4990332;28;45460;-77
2021/09/25 06:33:05;;;;;;;;;30.25;27.00;;;;;;;;4989947;28;45282;-77
2021/09/25 06:35:30;;;;;;;;;31.00;27.00;;;;;;;;4989310;28;46183;-75
2021/09/25 06:37:56;;;;;;;;;31.50;27.00;;;;;;;;4989704;28;45445;-78
2021/09/25 06:40:21;;;;;;;;;32.00;27.75;;;;;;;;4990652;28;45459;-76
2021/09/25 06:42:46;;;;;;;;;30.00;25.25;;;;;;;;4992155;28;45541;-76
2021/09/25 06:45:11;;;;;;;;;28.75;28.25;;;;;;;;4989600;28;46224;-77
2021/09/25 06:47:36;;;;;;;;;29.00;27.00;;;;;;;;4988029;28;45254;-77
2021/09/25 06:50:03;;;;;;;;;32.50;23.00;;;;;;;;4987865;28;45443;-77
2021/09/25 06:52:28;;;;;;;;;29.25;27.50;;;;;;;;4989901;28;45230;-76
2021/09/25 06:54:53;;;;;;;;;29.75;29.25;;;;;;;;4991678;28;46385;-78
2021/09/25 06:57:19;;;;;;;;;36.25;31.25;;;;;;;;4989293;28;45532;-78
2021/09/25 06:59:44;;;;;;;;;31.00;28.00;;;;;;;;4972123;28;45323;-77
2021/09/25 07:02:09;;;;;;;;;29.25;28.25;;;;;;;;4989478;28;45200;-78
2021/09/25 07:04:34;;;;;;;;;29.75;25.00;;;;;;;;4988446;28;46245;-77
2021/09/25 07:07:00;;;;;;;;;34.75;29.00;;;;;;;;4994433;28;45430;-77
2021/09/25 07:09:25;;;;;;;;;26.25;25.00;;;;;;;;4992360;28;45311;-78
2021/09/25 07:11:50;;;;;;;;;31.25;29.00;;;;;;;;4992945;28;45330;-76
2021/09/25 07:14:16;;;;;;;;;28.50;26.25;;;;;;;;4997515;28;46001;-76
2021/09/25 07:16:41;;;;;;;;;26.50;24.00;;;;;;;;4973840;28;45469;-78
2021/09/25 07:19:06;;;;;;;;;33.75;30.00;;;;;;;;4994317;28;45351;-78
2021/09/25 07:21:32;;;;;;;;;27.00;26.25;;;;;;;;4992167;28;45567;-77
2021/09/25 07:23:57;;;;;;;;;30.00;28.00;;;;;;;;4992364;28;46329;-77
2021/09/25 07:26:22;;;;;;;;;35.00;29.50;;;;;;;;4991963;28;45415;-76
2021/09/25 07:28:48;;;;;;;;;30.50;30.00;;;;;;;;4991140;28;45569;-77
2021/09/25 07:31:13;;;;;;;;;34.25;30.50;;;;;;;;4993445;28;45470;-78
2021/09/25 07:33:38;;;;;;;;;34.50;30.50;;;;;;;;4992139;28;46474;-77
2021/09/25 07:36:03;;;;;;;;;30.25;29.50;;;;;;;;4991290;28;45509;-76
2021/09/25 07:38:29;;;;;;;;;35.00;30.25;;;;;;;;4990647;28;45437;-77
2021/09/25 07:40:56;;;;;;;;;30.50;25.75;;;;;;;;4990971;28;45420;-76
2021/09/25 07:43:21;;;;;;;;;33.75;30.75;;;;;;;;4974652;28;46289;-78
2021/09/25 07:45:47;;;;;;;;;31.50;30.50;;;;;;;;4993482;28;45346;-78
2021/09/25 07:48:12;;;;;;;;;34.50;31.25;;;;;;;;4990598;28;45287;-78
2021/09/25 07:50:37;;;;;;;;;32.50;30.00;;;;;;;;4992243;28;45237;-77
2021/09/25 07:53:02;;;;;;;;;31.25;25.75;;;;;;;;4993212;28;45990;-77
2021/09/25 07:55:28;;;;;;;;;30.75;28.75;;;;;;;;4997528;28;45451;-77
2021/09/25 07:57:53;;;;;;;;;28.75;27.75;;;;;;;;4994094;28;45264;-77
2021/09/25 08:00:19;;;;;;;;;32.50;28.25;;;;;;;;4989596;28;45208;-77
2021/09/25 08:02:44;;;;;;;;;35.50;30.50;;;;;;;;4991195;28;46340;-76
2021/09/25 08:05:10;;;;;;;;;27.00;27.00;;;;;;;;4990387;28;45491;-78
2021/09/25 08:07:36;;;;;;;;;33.50;28.00;;;;;;;;4991394;28;45386;-77
2021/09/25 08:10:01;;;;;;;;;40.50;34.75;;;;;;;;4993550;28;45374;-78
2021/09/25 08:12:27;;;;;;;;;30.00;28.50;;;;;;;;4991342;28;46942;-78
2021/09/25 08:14:52;;;;;;;;;37.25;33.00;;;;;;;;4991398;28;45395;-77
2021/09/25 08:17:17;;;;;;;;;35.00;31.00;;;;;;;;4990567;28;45320;-77
2021/09/25 08:19:43;;;;;;;;;34.25;31.25;;;;;;;;4991462;28;45298;-78
2021/09/25 08:22:08;;;;;;;;;24.25;23.25;;;;;;;;4993157;28;46560;-77
2021/09/25 08:24:33;;;;;;;;;30.00;24.75;;;;;;;;4990941;28;45505;-77
2021/09/25 08:26:59;;;;;;;;;37.00;31.00;;;;;;;;4991206;28;46868;-77
2021/09/25 08:29:24;;;;;;;;;29.50;27.00;;;;;;;;4991370;28;45538;-77
2021/09/25 08:31:49;;;;;;;;;31.25;29.75;;;;;;;;4991265;28;45483;-76
2021/09/25 08:34:15;;;;;;;;;30.00;25.75;;;;;;;;4992529;28;45380;-71
2021/09/25 08:36:42;;;;;;;;;46.25;38.00;;;;;;;;4991909;28;45229;-72
2021/09/25 08:39:07;;;;;;;;;29.00;29.00;;;;;;;;4990693;28;45541;-74
2021/09/25 08:41:33;;;;;;;;;34.25;30.75;;;;;;;;4990007;28;46073;-73
2021/09/25 08:43:59;;;;;;;;;36.75;31.00;;;;;;;;4989450;28;45302;-74
2021/09/25 08:46:24;;;;;;;;;34.25;30.50;;;;;;;;4991447;28;45695;-72
2021/09/25 08:48:49;;;;;;;;;32.75;31.25;;;;;;;;4972787;28;45494;-72
2021/09/25 08:51:14;;;;;;;;;40.00;32.25;;;;;;;;4989966;28;47060;-71
2021/09/25 08:53:39;;;;;;;;;32.25;30.50;;;;;;;;4990470;28;45462;-72
2021/09/25 08:56:05;;;;;;;;;29.75;28.00;;;;;;;;4990965;28;45334;-74
2021/09/25 08:58:30;;;;;;;;;33.75;32.00;;;;;;;;4972722;28;45323;-72
2021/09/25 09:00:55;;;;;;;;;34.00;31.75;;;;;;;;4991848;28;45409;-72
2021/09/25 09:03:32;;;;;;;;;27.00;26.50;;;;;;;;4990281;28;45331;-72
2021/09/25 09:06:08;;;;;;;;;46.75;37.25;;;;;;;;4990811;28;45350;-72
2021/09/25 09:08:34;;;;;;;;;31.50;31.00;;;;;;;;4990665;28;45590;-71
2021/09/25 09:11:00;;;;;;;;;33.75;30.50;;;;;;;;4989738;28;46075;-74
2021/09/25 09:13:25;;;;;;;;;36.50;30.75;;;;;;;;4990442;28;45363;-73
2021/09/25 09:15:52;;;;;;;;;34.00;29.50;;;;;;;;4991914;28;45492;-73
2021/09/25 09:18:18;;;;;;;;;44.00;36.25;;;;;;;;4990621;28;45432;-73
2021/09/25 09:21:00;;;;;;;;;34.00;30.75;;;;;;;;4990189;28;45362;-73
2021/09/25 09:23:26;;;;;;;;;30.25;27.00;;;;;;;;4988965;28;47205;-72
2021/09/25 09:25:51;;;;;;;;;25.00;24.50;;;;;;;;4989146;28;45504;-71
2021/09/25 09:28:22;;;;;;;;;29.50;27.75;;;;;;;;4991251;28;45272;-73
2021/09/25 09:30:48;;;;;;;;;32.75;30.00;;;;;;;;4991599;28;46705;-72
2021/09/25 09:33:52;;;;;;;;;31.50;28.75;;;;;;;;4989893;28;45480;-70
2021/09/25 09:36:20;;;;;;;;;30.75;28.25;;;;;;;;4930926;28;45324;-73
2021/09/25 09:38:50;;;;;;;;;27.75;22.75;;;;;;;;4926377;28;45641;-73
2021/09/25 09:41:35;;;;;;;;;31.00;30.00;;;;;;;;4919860;28;47025;-73
2021/09/25 09:44:02;;;;;;;;;28.00;28.00;;;;;;;;4918195;28;45451;-74
2021/09/25 09:46:31;;;;;;;;;31.25;29.50;;;;;;;;4915132;28;45452;-73
2021/09/25 09:48:56;;;;;;;;;32.00;26.25;;;;;;;;4917362;28;45508;-73
2021/09/25 09:51:34;;;;;;;;;29.25;29.25;;;;;;;;4919487;28;45602;-72
2021/09/25 09:54:00;;;;;;;;;29.25;27.50;;;;;;;;4919926;28;45510;-73
2021/09/25 09:56:25;;;;;;;;;41.75;34.25;;;;;;;;4919501;28;45360;-71
2021/09/25 09:58:58;;;;;;;;;30.00;26.75;;;;;;;;4916648;28;45474;-73
2021/09/25 10:01:23;;;;;;;;;26.00;26.00;;;;;;;;4914996;28;46987;-75
2021/09/25 10:03:49;;;;;;;;;32.75;26.75;;;;;;;;4918483;28;45334;-72
2021/09/25 10:06:14;;;;;;;;;30.50;26.50;;;;;;;;4931399;28;45451;-71
2021/09/25 10:08:40;;;;;;;;;27.25;25.25;;;;;;;;4962664;28;45331;-72
2021/09/25 10:11:05;;;;;;;;;26.00;25.25;;;;;;;;4970330;28;45486;-73
2021/09/25 10:13:32;;;;;;;;;26.25;25.50;;;;;;;;4970250;28;45403;-71
2021/09/25 10:15:58;;;;;;;;;29.25;26.50;;;;;;;;4972621;28;45474;-72
2021/09/25 10:18:23;;;;;;;;;26.50;24.25;;;;;;;;4968027;28;45329;-73
2021/09/25 10:20:48;;;;;;;;;31.75;26.25;;;;;;;;4969605;28;45468;-73
2021/09/25 10:23:14;;;;;;;;;24.25;24.25;;;;;;;;4969867;28;45289;-73
2021/09/25 10:25:40;;;;;;;;;26.50;26.50;;;;;;;;4969925;28;45522;-74
2021/09/25 10:28:22;;;;;;;;;25.50;24.50;;;;;;;;4966879;28;45336;-73
2021/09/25 10:30:49;;;;;;;;;23.75;23.75;;;;;;;;4971228;28;45997;-74
2021/09/25 10:33:15;;;;;;;;;28.25;25.75;;;;;;;;4969598;28;45437;-74
2021/09/25 10:35:40;;;;;;;;;27.25;22.50;;;;;;;;4969776;28;45472;-74
2021/09/25 10:38:05;;;;;;;;;22.00;20.00;;;;;;;;4969959;28;45394;-74
2021/09/25 10:40:40;;;;;;;;;26.00;23.25;;;;;;;;4968603;28;46124;-74
2021/09/25 10:43:26;;;;;;;;;23.25;21.75;;;;;;;;4966966;28;45442;-74
2021/09/25 10:45:55;;;;;;;;;24.75;22.50;;;;;;;;4969738;28;45339;-74
2021/09/25 10:48:23;;;;;;;;;25.75;25.75;;;;;;;;4971114;28;45486;-75
2021/09/25 10:50:49;;;;;;;;;25.25;24.25;;;;;;;;4988500;28;47134;-75
2021/09/25 10:53:15;;;;;;;;;22.25;21.75;;;;;;;;4989246;28;45417;-73
2021/09/25 10:55:41;;;;;;;;;22.00;19.25;;;;;;;;4989497;28;45485;-74
2021/09/25 10:58:16;;;;;;;;;18.75;18.75;;;;;;;;4990933;28;45302;-73
2021/09/25 11:00:47;;;;;;;;;19.75;18.25;;;;;;;;4988487;28;47181;-74
2021/09/25 11:03:32;;;;;;;;;21.50;18.00;;;;;;;;4988466;28;45396;-75
2021/09/25 11:06:04;;;;;;;;;21.75;19.00;;;;;;;;4988591;28;45303;-73
2021/09/25 11:08:30;;;;;;;;;20.00;19.25;;;;;;;;4988657;28;45535;-74
2021/09/25 11:11:12;;;;;;;;;17.75;16.75;;;;;;;;4988142;28;45928;-73
2021/09/25 11:13:55;;;;;;;;;16.00;16.00;;;;;;;;4988548;28;45438;-74
2021/09/25 11:16:53;;;;;;;;;19.25;19.25;;;;;;;;4986926;27;45345;-74
2021/09/25 11:19:21;;;;;;;;;21.00;18.75;;;;;;;;4948035;28;45436;-73
2021/09/25 11:21:49;;;;;;;;;19.75;17.75;;;;;;;;4934053;28;46961;-74
2021/09/25 11:24:18;;;;;;;;;21.75;18.75;;;;;;;;4934801;28;45357;-75
2021/09/25 11:26:43;;;;;;;;;20.50;18.50;;;;;;;;4934896;28;45358;-72
2021/09/25 11:29:09;;;;;;;;;18.75;18.50;;;;;;;;4934565;28;45456;-74
2021/09/25 11:31:35;;;;;;;;;15.25;14.50;;;;;;;;4930763;28;46282;-74
2021/09/25 11:34:01;;;;;;;;;17.25;17.25;;;;;;;;4934122;28;45419;-74
2021/09/25 11:36:28;;;;;;;;;16.75;14.00;;;;;;;;4934980;28;45588;-73
2021/09/25 11:38:53;;;;;;;;;26.00;18.25;;;;;;;;4934644;28;45457;-74
2021/09/25 11:41:19;;;;;;;;;22.25;22.25;;;;;;;;4934106;28;46555;-73
2021/09/25 11:43:55;;;;;;;;;26.50;22.25;;;;;;;;4930672;28;45444;-73
2021/09/25 11:46:20;;;;;;;;;16.00;16.00;;;;;;;;4942035;28;45415;-74
2021/09/25 11:48:45;;;;;;;;;21.75;20.75;;;;;;;;4942464;28;45461;-75
2021/09/25 11:51:10;;;;;;;;;17.50;17.50;;;;;;;;4934614;28;45449;-75
2021/09/25 11:53:36;;;;;;;;;22.50;18.75;;;;;;;;4933697;28;45409;-75
2021/09/25 11:56:02;;;;;;;;;18.25;18.25;;;;;;;;4976696;28;45354;-77
2021/09/25 11:58:27;;;;;;;;;16.75;16.75;;;;;;;;4990800;28;45306;-76
2021/09/25 12:00:56;;;;;;;;;17.50;13.75;;;;;;;;4990152;28;45276;-73
2021/09/25 12:03:23;;;;;;;;;14.25;14.25;;;;;;;;4970824;28;45577;-75
2021/09/25 12:05:52;;;;;;;;;18.25;17.25;;;;;;;;4990774;28;45388;-75
2021/09/25 12:08:18;;;;;;;;;12.75;12.75;;;;;;;;4990997;28;45410;-75
2021/09/25 12:10:45;;;;;;;;;22.00;21.00;;;;;;;;4990661;28;46042;-74
2021/09/25 12:13:17;;;;;;;;;17.75;17.25;;;;;;;;4975642;28;45350;-75
2021/09/25 12:15:44;;;;;;;;;15.00;15.00;;;;;;;;4992217;28;45293;-76
2021/09/25 12:18:14;;;;;;;;;14.75;13.75;;;;;;;;4990686;28;45421;-75
2021/09/25 12:20:41;;;;;;;;;18.50;15.75;;;;;;;;4990172;28;46480;-73
2021/09/25 12:23:07;;;;;;;;;13.75;13.75;;;;;;;;4990832;28;45611;-73
2021/09/25 12:25:33;;;;;;;;;19.50;18.25;;;;;;;;4990995;28;45398;-73
2021/09/25 12:27:59;;;;;;;;;12.75;12.75;;;;;;;;4992784;28;45423;-73
2021/09/25 12:30:24;;;;;;;;;13.25;12.25;;;;;;;;4990183;28;46176;-74
2021/09/25 12:33:02;;;;;;;;;15.25;15.00;;;;;;;;4991021;28;45296;-74
2021/09/25 12:35:28;;;;;;;;;17.50;14.00;;;;;;;;4990567;28;45645;-73
2021/09/25 12:37:54;;;;;;;;;14.00;13.25;;;;;;;;4970956;28;45622;-74
2021/09/25 12:40:20;;;;;;;;;12.50;12.50;;;;;;;;4991582;28;46312;-74
2021/09/25 12:42:48;;;;;;;;;14.50;13.25;;;;;;;;4990344;28;45332;-73
2021/09/25 12:45:13;;;;;;;;;11.75;11.25;;;;;;;;4990228;28;45309;-74
2021/09/25 12:47:39;;;;;;;;;13.75;12.00;;;;;;;;4990392;28;45203;-74
2021/09/25 12:50:20;;;;;;;;;12.00;12.00;;;;;;;;4990282;28;46727;-74
2021/09/25 12:52:45;;;;;;;;;9.50;9.00;;;;;;;;4975792;28;45414;-73
2021/09/25 12:55:11;;;;;;;;;16.25;16.25;;;;;;;;4992514;28;45485;-74
2021/09/25 12:57:37;;;;;;;;;16.50;16.50;;;;;;;;4992293;28;45270;-74
2021/09/25 13:00:07;;;;;;;;;11.75;10.25;;;;;;;;4992200;28;46167;-73
2021/09/25 13:02:32;;;;;;;;;17.25;15.00;;;;;;;;4990059;28;45326;-74
2021/09/25 13:04:58;;;;;;;;;11.50;10.50;;;;;;;;4988658;28;45280;-74
2021/09/25 13:07:34;;;;;;;;;12.75;12.00;;;;;;;;4990709;28;45412;-75
2021/09/25 13:10:03;;;;;;;;;13.50;12.25;;;;;;;;4991992;28;47129;-74
2021/09/25 13:12:29;;;;;;;;;10.75;10.75;;;;;;;;4989617;28;45579;-75
2021/09/25 13:15:04;;;;;;;;;10.25;10.25;;;;;;;;4989705;28;45441;-73
2021/09/25 13:17:30;;;;;;;;;12.25;11.50;;;;;;;;4988071;28;45384;-74
2021/09/25 13:19:55;;;;;;;;;14.75;13.25;;;;;;;;4987593;28;46973;-74
2021/09/25 13:22:20;;;;;;;;;14.00;13.00;;;;;;;;4990256;28;45464;-73
2021/09/25 13:24:46;;;;;;;;;13.25;12.25;;;;;;;;4991595;28;45293;-73
2021/09/25 13:27:11;;;;;;;;;15.75;13.75;;;;;;;;4989705;28;45401;-74
2021/09/25 13:29:37;;;;;;;;;14.75;12.50;;;;;;;;4989383;28;46184;-74
2021/09/25 13:32:02;;;;;;;;;14.25;12.00;;;;;;;;4989056;28;45570;-74
2021/09/25 13:34:28;;;;;;;;;14.00;11.50;;;;;;;;4988318;28;45564;-74
2021/09/25 13:36:53;;;;;;;;;15.00;14.75;;;;;;;;4991357;28;45493;-74
2021/09/25 13:39:18;;;;;;;;;14.50;14.00;;;;;;;;4989650;28;45741;-74
2021/09/25 13:41:44;;;;;;;;;10.75;10.75;;;;;;;;4989354;28;45567;-74
2021/09/25 13:44:09;;;;;;;;;12.00;10.00;;;;;;;;4989990;28;45584;-74
2021/09/25 13:46:34;;;;;;;;;15.50;13.50;;;;;;;;4989430;28;45382;-74
2021/09/25 13:48:59;;;;;;;;;12.67;10.00;;;;;;;;4990609;28;46319;-73
2021/09/25 13:51:25;;;;;;;;;10.25;10.25;;;;;;;;4989372;28;45362;-73
2021/09/25 13:53:50;;;;;;;;;10.00;9.25;;;;;;;;4989537;28;45390;-75
2021/09/25 13:56:15;;;;;;;;;13.75;13.00;;;;;;;;4988021;28;45443;-75
2021/09/25 13:58:40;;;;;;;;;10.50;10.25;;;;;;;;4988581;28;45391;-74
2021/09/25 14:01:06;;;;;;;;;12.00;11.00;;;;;;;;4990838;28;45404;-75
2021/09/25 14:03:31;;;;;;;;;12.75;11.50;;;;;;;;4989029;28;45426;-73
2021/09/25 14:05:56;;;;;;;;;11.00;10.00;;;;;;;;4988779;28;45465;-73
2021/09/25 14:08:21;;;;;;;;;12.00;10.25;;;;;;;;4988848;28;46254;-74
2021/09/25 14:10:47;;;;;;;;;12.00;11.00;;;;;;;;4989078;28;45427;-74